sensor_id;sensor_type;location;lat;lon;timestamp;P1;durP1;ratioP1;P2;durP2;ratioP2
15071;SDS011;7635;56.696;13.002;2023-07-22T00:01:40;3.47;;;1.40;;
15071;SDS011;7635;56.696;13.002;2023-07-22T00:04:07;1.77;;;1.58;;
15071;SDS011;7635;56.696;13.002;2023-07-22T00:06:34;2.03;;;1.27;;
15071;SDS011;7635;56.696;13.002;2023-07-22T00:09:01;1.73;;;1.40;;
15071;SDS011;7635;56.696;13.002;2023-07-22T00:11:28;1.88;;;1.55;;
15071;SDS011;7635;56.696;13.002;2023-07-22T00:13:56;1.85;;;1.50;;
15071;SDS011;7635;56.696;13.002;2023-07-22T00:16:24;1.05;;;1.02;;
15071;SDS011;7635;56.696;13.002;2023-07-22T00:18:50;1.67;;;1.58;;
15071;SDS011;7635;56.696;13.002;2023-07-22T00:21:17;1.55;;;1.45;;
15071;SDS011;7635;56.696;13.002;2023-07-22T00:23:44;1.30;;;1.20;;
15071;SDS011;7635;56.696;13.002;2023-07-22T00:26:11;3.13;;;1.30;;
15071;SDS011;7635;56.696;13.002;2023-07-22T00:28:37;1.52;;;1.42;;
15071;SDS011;7635;56.696;13.002;2023-07-22T00:31:06;1.42;;;1.33;;
15071;SDS011;7635;56.696;13.002;2023-07-22T00:33:33;2.63;;;1.60;;
15071;SDS011;7635;56.696;13.002;2023-07-22T00:36:00;1.38;;;1.05;;
15071;SDS011;7635;56.696;13.002;2023-07-22T00:38:26;1.13;;;1.05;;
15071;SDS011;7635;56.696;13.002;2023-07-22T00:40:53;1.10;;;1.10;;
15071;SDS011;7635;56.696;13.002;2023-07-22T00:43:20;1.33;;;1.23;;
15071;SDS011;7635;56.696;13.002;2023-07-22T00:45:46;1.05;;;1.05;;
15071;SDS011;7635;56.696;13.002;2023-07-22T00:48:15;1.00;;;1.00;;
15071;SDS011;7635;56.696;13.002;2023-07-22T00:50:42;1.40;;;1.20;;
15071;SDS011;7635;56.696;13.002;2023-07-22T00:53:09;2.17;;;1.05;;
15071;SDS011;7635;56.696;13.002;2023-07-22T00:55:36;1.80;;;1.30;;
15071;SDS011;7635;56.696;13.002;2023-07-22T00:58:05;2.45;;;1.15;;
15071;SDS011;7635;56.696;13.002;2023-07-22T01:00:32;1.15;;;1.05;;
15071;SDS011;7635;56.696;13.002;2023-07-22T01:02:59;0.85;;;0.82;;
15071;SDS011;7635;56.696;13.002;2023-07-22T01:05:27;1.63;;;1.17;;
15071;SDS011;7635;56.696;13.002;2023-07-22T01:07:54;0.95;;;0.90;;
15071;SDS011;7635;56.696;13.002;2023-07-22T01:10:21;4.13;;;1.10;;
15071;SDS011;7635;56.696;13.002;2023-07-22T01:12:48;1.17;;;1.00;;
15071;SDS011;7635;56.696;13.002;2023-07-22T01:15:15;1.50;;;0.95;;
15071;SDS011;7635;56.696;13.002;2023-07-22T01:17:42;2.03;;;0.98;;
15071;SDS011;7635;56.696;13.002;2023-07-22T01:20:09;0.80;;;0.80;;
15071;SDS011;7635;56.696;13.002;2023-07-22T01:22:38;0.80;;;0.80;;
15071;SDS011;7635;56.696;13.002;2023-07-22T01:25:08;2.88;;;0.90;;
15071;SDS011;7635;56.696;13.002;2023-07-22T01:27:35;1.17;;;1.00;;
15071;SDS011;7635;56.696;13.002;2023-07-22T01:30:02;1.20;;;1.10;;
15071;SDS011;7635;56.696;13.002;2023-07-22T01:32:29;1.17;;;1.08;;
15071;SDS011;7635;56.696;13.002;2023-07-22T01:34:56;0.70;;;0.70;;
15071;SDS011;7635;56.696;13.002;2023-07-22T01:37:23;0.85;;;0.85;;
15071;SDS011;7635;56.696;13.002;2023-07-22T01:39:50;2.67;;;1.02;;
15071;SDS011;7635;56.696;13.002;2023-07-22T01:42:18;0.98;;;0.98;;
15071;SDS011;7635;56.696;13.002;2023-07-22T01:44:45;0.77;;;0.77;;
15071;SDS011;7635;56.696;13.002;2023-07-22T01:47:12;1.02;;;1.02;;
15071;SDS011;7635;56.696;13.002;2023-07-22T01:49:38;1.15;;;1.00;;
15071;SDS011;7635;56.696;13.002;2023-07-22T01:52:05;1.13;;;1.10;;
15071;SDS011;7635;56.696;13.002;2023-07-22T01:54:32;0.90;;;0.90;;
15071;SDS011;7635;56.696;13.002;2023-07-22T01:56:59;0.80;;;0.80;;
15071;SDS011;7635;56.696;13.002;2023-07-22T01:59:27;1.75;;;1.20;;
15071;SDS011;7635;56.696;13.002;2023-07-22T02:01:54;0.80;;;0.80;;
15071;SDS011;7635;56.696;13.002;2023-07-22T02:04:21;0.90;;;0.90;;
15071;SDS011;7635;56.696;13.002;2023-07-22T02:06:47;1.17;;;1.15;;
15071;SDS011;7635;56.696;13.002;2023-07-22T02:09:14;1.30;;;1.10;;
15071;SDS011;7635;56.696;13.002;2023-07-22T02:11:41;1.30;;;1.20;;
15071;SDS011;7635;56.696;13.002;2023-07-22T02:14:07;1.73;;;0.95;;
15071;SDS011;7635;56.696;13.002;2023-07-22T02:16:36;1.08;;;1.00;;
15071;SDS011;7635;56.696;13.002;2023-07-22T02:19:02;1.15;;;1.10;;
15071;SDS011;7635;56.696;13.002;2023-07-22T02:21:29;0.75;;;0.75;;
15071;SDS011;7635;56.696;13.002;2023-07-22T02:23:56;1.55;;;1.17;;
15071;SDS011;7635;56.696;13.002;2023-07-22T02:26:23;0.93;;;0.88;;
15071;SDS011;7635;56.696;13.002;2023-07-22T02:28:50;1.50;;;0.90;;
15071;SDS011;7635;56.696;13.002;2023-07-22T02:31:16;0.85;;;0.82;;
15071;SDS011;7635;56.696;13.002;2023-07-22T02:33:44;2.28;;;0.98;;
15071;SDS011;7635;56.696;13.002;2023-07-22T02:36:11;1.17;;;1.08;;
15071;SDS011;7635;56.696;13.002;2023-07-22T02:38:38;1.10;;;1.00;;
15071;SDS011;7635;56.696;13.002;2023-07-22T02:41:05;1.48;;;0.98;;
15071;SDS011;7635;56.696;13.002;2023-07-22T02:43:33;0.90;;;0.90;;
15071;SDS011;7635;56.696;13.002;2023-07-22T02:46:00;0.80;;;0.80;;
15071;SDS011;7635;56.696;13.002;2023-07-22T02:48:27;1.23;;;1.17;;
15071;SDS011;7635;56.696;13.002;2023-07-22T02:50:55;0.80;;;0.80;;
15071;SDS011;7635;56.696;13.002;2023-07-22T02:53:27;0.80;;;0.80;;
15071;SDS011;7635;56.696;13.002;2023-07-22T02:55:54;0.88;;;0.88;;
15071;SDS011;7635;56.696;13.002;2023-07-22T02:58:21;1.33;;;1.23;;
15071;SDS011;7635;56.696;13.002;2023-07-22T03:00:47;1.63;;;1.30;;
15071;SDS011;7635;56.696;13.002;2023-07-22T03:03:14;0.95;;;0.93;;
15071;SDS011;7635;56.696;13.002;2023-07-22T03:05:41;1.20;;;1.02;;
15071;SDS011;7635;56.696;13.002;2023-07-22T03:08:09;1.58;;;1.15;;
15071;SDS011;7635;56.696;13.002;2023-07-22T03:10:35;0.93;;;0.93;;
15071;SDS011;7635;56.696;13.002;2023-07-22T03:13:02;1.15;;;0.90;;
15071;SDS011;7635;56.696;13.002;2023-07-22T03:15:29;1.10;;;0.95;;
15071;SDS011;7635;56.696;13.002;2023-07-22T03:17:56;1.13;;;1.00;;
15071;SDS011;7635;56.696;13.002;2023-07-22T03:20:24;0.90;;;0.90;;
15071;SDS011;7635;56.696;13.002;2023-07-22T03:22:50;1.63;;;0.90;;
15071;SDS011;7635;56.696;13.002;2023-07-22T03:25:19;0.60;;;0.60;;
15071;SDS011;7635;56.696;13.002;2023-07-22T03:27:46;1.23;;;0.90;;
15071;SDS011;7635;56.696;13.002;2023-07-22T03:30:13;0.85;;;0.85;;
15071;SDS011;7635;56.696;13.002;2023-07-22T03:32:40;1.00;;;1.00;;
15071;SDS011;7635;56.696;13.002;2023-07-22T03:35:08;3.58;;;1.10;;
15071;SDS011;7635;56.696;13.002;2023-07-22T03:37:35;0.82;;;0.82;;
15071;SDS011;7635;56.696;13.002;2023-07-22T03:40:03;1.30;;;1.20;;
15071;SDS011;7635;56.696;13.002;2023-07-22T03:42:33;1.13;;;1.02;;
15071;SDS011;7635;56.696;13.002;2023-07-22T03:45:00;1.40;;;1.05;;
15071;SDS011;7635;56.696;13.002;2023-07-22T03:47:27;0.70;;;0.70;;
15071;SDS011;7635;56.696;13.002;2023-07-22T03:49:54;0.68;;;0.68;;
15071;SDS011;7635;56.696;13.002;2023-07-22T03:52:21;0.88;;;0.88;;
15071;SDS011;7635;56.696;13.002;2023-07-22T03:54:49;1.00;;;1.00;;
15071;SDS011;7635;56.696;13.002;2023-07-22T03:57:16;0.90;;;0.90;;
15071;SDS011;7635;56.696;13.002;2023-07-22T03:59:44;0.88;;;0.88;;
15071;SDS011;7635;56.696;13.002;2023-07-22T04:02:10;1.00;;;1.00;;
15071;SDS011;7635;56.696;13.002;2023-07-22T04:04:37;1.40;;;1.23;;
15071;SDS011;7635;56.696;13.002;2023-07-22T04:07:04;1.55;;;1.02;;
15071;SDS011;7635;56.696;13.002;2023-07-22T04:09:33;1.00;;;1.00;;
15071;SDS011;7635;56.696;13.002;2023-07-22T04:11:59;1.30;;;1.20;;
15071;SDS011;7635;56.696;13.002;2023-07-22T04:14:26;0.98;;;0.98;;
15071;SDS011;7635;56.696;13.002;2023-07-22T04:16:54;1.20;;;1.10;;
15071;SDS011;7635;56.696;13.002;2023-07-22T04:19:21;1.30;;;1.20;;
15071;SDS011;7635;56.696;13.002;2023-07-22T04:21:47;0.98;;;0.98;;
15071;SDS011;7635;56.696;13.002;2023-07-22T04:24:14;1.50;;;1.40;;
15071;SDS011;7635;56.696;13.002;2023-07-22T04:26:41;1.35;;;1.25;;
15071;SDS011;7635;56.696;13.002;2023-07-22T04:29:10;1.50;;;1.40;;
15071;SDS011;7635;56.696;13.002;2023-07-22T04:31:37;1.40;;;1.20;;
15071;SDS011;7635;56.696;13.002;2023-07-22T04:34:05;1.70;;;1.35;;
15071;SDS011;7635;56.696;13.002;2023-07-22T04:36:32;4.05;;;1.60;;
15071;SDS011;7635;56.696;13.002;2023-07-22T04:38:59;1.30;;;1.20;;
15071;SDS011;7635;56.696;13.002;2023-07-22T04:41:26;1.83;;;1.63;;
15071;SDS011;7635;56.696;13.002;2023-07-22T04:43:53;1.50;;;1.40;;
15071;SDS011;7635;56.696;13.002;2023-07-22T04:46:19;1.75;;;1.45;;
15071;SDS011;7635;56.696;13.002;2023-07-22T04:48:46;2.65;;;1.40;;
15071;SDS011;7635;56.696;13.002;2023-07-22T04:51:14;1.40;;;1.30;;
15071;SDS011;7635;56.696;13.002;2023-07-22T04:53:41;0.98;;;0.98;;
15071;SDS011;7635;56.696;13.002;2023-07-22T04:56:08;1.70;;;1.40;;
15071;SDS011;7635;56.696;13.002;2023-07-22T04:58:34;2.38;;;1.40;;
15071;SDS011;7635;56.696;13.002;2023-07-22T05:01:01;4.18;;;1.25;;
15071;SDS011;7635;56.696;13.002;2023-07-22T05:03:28;1.77;;;1.38;;
15071;SDS011;7635;56.696;13.002;2023-07-22T05:05:54;1.08;;;1.08;;
15071;SDS011;7635;56.696;13.002;2023-07-22T05:08:24;1.30;;;1.13;;
15071;SDS011;7635;56.696;13.002;2023-07-22T05:10:50;1.92;;;1.40;;
15071;SDS011;7635;56.696;13.002;2023-07-22T05:13:17;1.45;;;1.35;;
15071;SDS011;7635;56.696;13.002;2023-07-22T05:15:44;1.13;;;1.02;;
15071;SDS011;7635;56.696;13.002;2023-07-22T05:18:10;1.30;;;1.20;;
15071;SDS011;7635;56.696;13.002;2023-07-22T05:20:37;1.40;;;1.30;;
15071;SDS011;7635;56.696;13.002;2023-07-22T05:23:04;1.20;;;1.10;;
15071;SDS011;7635;56.696;13.002;2023-07-22T05:25:32;1.20;;;1.10;;
15071;SDS011;7635;56.696;13.002;2023-07-22T05:27:59;1.70;;;1.25;;
15071;SDS011;7635;56.696;13.002;2023-07-22T05:30:25;2.50;;;1.27;;
15071;SDS011;7635;56.696;13.002;2023-07-22T05:32:52;1.00;;;1.00;;
15071;SDS011;7635;56.696;13.002;2023-07-22T05:35:19;1.83;;;1.50;;
15071;SDS011;7635;56.696;13.002;2023-07-22T05:37:45;1.48;;;1.38;;
15071;SDS011;7635;56.696;13.002;2023-07-22T05:40:13;1.40;;;1.30;;
15071;SDS011;7635;56.696;13.002;2023-07-22T05:42:41;1.23;;;1.17;;
15071;SDS011;7635;56.696;13.002;2023-07-22T05:45:08;1.30;;;1.20;;
15071;SDS011;7635;56.696;13.002;2023-07-22T05:47:38;1.38;;;1.30;;
15071;SDS011;7635;56.696;13.002;2023-07-22T05:50:05;1.50;;;1.40;;
15071;SDS011;7635;56.696;13.002;2023-07-22T05:52:33;1.38;;;1.27;;
15071;SDS011;7635;56.696;13.002;2023-07-22T05:54:59;1.23;;;1.13;;
15071;SDS011;7635;56.696;13.002;2023-07-22T05:57:26;1.45;;;1.08;;
15071;SDS011;7635;56.696;13.002;2023-07-22T05:59:54;1.15;;;1.05;;
15071;SDS011;7635;56.696;13.002;2023-07-22T06:02:21;1.42;;;1.33;;
15071;SDS011;7635;56.696;13.002;2023-07-22T06:04:47;1.00;;;1.00;;
15071;SDS011;7635;56.696;13.002;2023-07-22T06:07:14;2.92;;;1.30;;
15071;SDS011;7635;56.696;13.002;2023-07-22T06:09:41;1.52;;;1.23;;
15071;SDS011;7635;56.696;13.002;2023-07-22T06:12:07;1.17;;;1.08;;
15071;SDS011;7635;56.696;13.002;2023-07-22T06:14:34;1.70;;;1.17;;
15071;SDS011;7635;56.696;13.002;2023-07-22T06:17:02;1.08;;;1.05;;
15071;SDS011;7635;56.696;13.002;2023-07-22T06:19:29;1.05;;;1.05;;
15071;SDS011;7635;56.696;13.002;2023-07-22T06:21:56;1.08;;;1.08;;
15071;SDS011;7635;56.696;13.002;2023-07-22T06:24:23;2.15;;;1.38;;
15071;SDS011;7635;56.696;13.002;2023-07-22T06:26:49;1.88;;;1.50;;
15071;SDS011;7635;56.696;13.002;2023-07-22T06:29:16;1.08;;;1.08;;
15071;SDS011;7635;56.696;13.002;2023-07-22T06:31:43;1.20;;;1.10;;
15071;SDS011;7635;56.696;13.002;2023-07-22T06:34:11;1.30;;;1.20;;
15071;SDS011;7635;56.696;13.002;2023-07-22T06:36:38;1.35;;;1.23;;
15071;SDS011;7635;56.696;13.002;2023-07-22T06:39:04;2.17;;;1.25;;
15071;SDS011;7635;56.696;13.002;2023-07-22T06:41:31;1.67;;;1.17;;
15071;SDS011;7635;56.696;13.002;2023-07-22T06:43:58;1.35;;;1.17;;
15071;SDS011;7635;56.696;13.002;2023-07-22T06:46:24;1.20;;;1.10;;
15071;SDS011;7635;56.696;13.002;2023-07-22T06:48:51;0.85;;;0.85;;
15071;SDS011;7635;56.696;13.002;2023-07-22T06:51:19;1.38;;;1.27;;
15071;SDS011;7635;56.696;13.002;2023-07-22T06:53:46;1.13;;;1.05;;
15071;SDS011;7635;56.696;13.002;2023-07-22T06:56:12;0.90;;;0.82;;
15071;SDS011;7635;56.696;13.002;2023-07-22T06:58:39;1.23;;;0.90;;
15071;SDS011;7635;56.696;13.002;2023-07-22T07:01:05;1.00;;;1.00;;
15071;SDS011;7635;56.696;13.002;2023-07-22T07:03:32;1.33;;;1.20;;
15071;SDS011;7635;56.696;13.002;2023-07-22T07:05:59;1.10;;;1.10;;
15071;SDS011;7635;56.696;13.002;2023-07-22T07:08:28;1.30;;;1.20;;
15071;SDS011;7635;56.696;13.002;2023-07-22T07:10:55;1.75;;;1.20;;
15071;SDS011;7635;56.696;13.002;2023-07-22T07:13:22;1.20;;;1.10;;
15071;SDS011;7635;56.696;13.002;2023-07-22T07:15:48;3.47;;;1.00;;
15071;SDS011;7635;56.696;13.002;2023-07-22T07:18:15;1.50;;;1.40;;
15071;SDS011;7635;56.696;13.002;2023-07-22T07:20:43;1.38;;;1.27;;
15071;SDS011;7635;56.696;13.002;2023-07-22T07:23:09;1.50;;;1.40;;
15071;SDS011;7635;56.696;13.002;2023-07-22T07:25:38;2.10;;;1.33;;
15071;SDS011;7635;56.696;13.002;2023-07-22T07:28:05;1.30;;;1.20;;
15071;SDS011;7635;56.696;13.002;2023-07-22T07:30:31;2.88;;;1.35;;
15071;SDS011;7635;56.696;13.002;2023-07-22T07:32:58;1.25;;;1.15;;
15071;SDS011;7635;56.696;13.002;2023-07-22T07:35:25;1.58;;;1.40;;
15071;SDS011;7635;56.696;13.002;2023-07-22T07:37:51;1.42;;;1.08;;
15071;SDS011;7635;56.696;13.002;2023-07-22T07:40:18;1.50;;;1.33;;
15071;SDS011;7635;56.696;13.002;2023-07-22T07:42:46;1.33;;;1.20;;
15071;SDS011;7635;56.696;13.002;2023-07-22T07:45:13;2.55;;;1.58;;
15071;SDS011;7635;56.696;13.002;2023-07-22T07:47:40;1.67;;;1.58;;
15071;SDS011;7635;56.696;13.002;2023-07-22T07:50:07;1.33;;;1.23;;
15071;SDS011;7635;56.696;13.002;2023-07-22T07:52:34;1.63;;;1.23;;
15071;SDS011;7635;56.696;13.002;2023-07-22T07:55:03;1.00;;;1.00;;
15071;SDS011;7635;56.696;13.002;2023-07-22T07:57:31;2.25;;;1.30;;
15071;SDS011;7635;56.696;13.002;2023-07-22T07:59:59;1.63;;;0.95;;
15071;SDS011;7635;56.696;13.002;2023-07-22T08:02:25;1.15;;;1.05;;
15071;SDS011;7635;56.696;13.002;2023-07-22T08:04:52;1.35;;;1.13;;
15071;SDS011;7635;56.696;13.002;2023-07-22T08:07:19;1.52;;;1.42;;
15071;SDS011;7635;56.696;13.002;2023-07-22T08:09:46;1.38;;;1.27;;
15071;SDS011;7635;56.696;13.002;2023-07-22T08:12:14;1.27;;;1.17;;
15071;SDS011;7635;56.696;13.002;2023-07-22T08:14:41;1.02;;;1.00;;
15071;SDS011;7635;56.696;13.002;2023-07-22T08:17:09;1.10;;;1.10;;
15071;SDS011;7635;56.696;13.002;2023-07-22T08:19:36;0.77;;;0.77;;
15071;SDS011;7635;56.696;13.002;2023-07-22T08:22:03;1.10;;;1.00;;
15071;SDS011;7635;56.696;13.002;2023-07-22T08:24:30;1.90;;;1.10;;
15071;SDS011;7635;56.696;13.002;2023-07-22T08:26:57;1.40;;;1.30;;
15071;SDS011;7635;56.696;13.002;2023-07-22T08:29:24;0.77;;;0.77;;
15071;SDS011;7635;56.696;13.002;2023-07-22T08:31:51;0.95;;;0.88;;
15071;SDS011;7635;56.696;13.002;2023-07-22T08:34:19;1.05;;;1.00;;
15071;SDS011;7635;56.696;13.002;2023-07-22T08:36:46;0.80;;;0.80;;
15071;SDS011;7635;56.696;13.002;2023-07-22T08:39:12;0.85;;;0.85;;
15071;SDS011;7635;56.696;13.002;2023-07-22T08:41:39;2.97;;;1.05;;
15071;SDS011;7635;56.696;13.002;2023-07-22T08:44:09;0.77;;;0.77;;
15071;SDS011;7635;56.696;13.002;2023-07-22T08:46:38;0.95;;;0.95;;
15071;SDS011;7635;56.696;13.002;2023-07-22T08:49:07;1.52;;;1.05;;
15071;SDS011;7635;56.696;13.002;2023-07-22T08:51:36;0.77;;;0.77;;
15071;SDS011;7635;56.696;13.002;2023-07-22T08:54:05;0.70;;;0.70;;
15071;SDS011;7635;56.696;13.002;2023-07-22T08:56:32;0.70;;;0.70;;
15071;SDS011;7635;56.696;13.002;2023-07-22T08:58:59;1.40;;;0.90;;
15071;SDS011;7635;56.696;13.002;2023-07-22T09:01:26;0.90;;;0.90;;
15071;SDS011;7635;56.696;13.002;2023-07-22T09:03:54;1.73;;;0.73;;
15071;SDS011;7635;56.696;13.002;2023-07-22T09:06:23;1.42;;;1.30;;
15071;SDS011;7635;56.696;13.002;2023-07-22T09:08:51;2.28;;;0.90;;
15071;SDS011;7635;56.696;13.002;2023-07-22T09:11:18;0.93;;;0.90;;
15071;SDS011;7635;56.696;13.002;2023-07-22T09:13:46;0.95;;;0.95;;
15071;SDS011;7635;56.696;13.002;2023-07-22T09:16:14;0.90;;;0.90;;
15071;SDS011;7635;56.696;13.002;2023-07-22T09:18:43;3.40;;;1.23;;
15071;SDS011;7635;56.696;13.002;2023-07-22T09:21:09;1.08;;;0.90;;
15071;SDS011;7635;56.696;13.002;2023-07-22T09:23:37;1.25;;;1.10;;
15071;SDS011;7635;56.696;13.002;2023-07-22T09:26:10;1.02;;;0.90;;
15071;SDS011;7635;56.696;13.002;2023-07-22T09:28:47;1.05;;;1.00;;
15071;SDS011;7635;56.696;13.002;2023-07-22T09:31:15;1.65;;;0.80;;
15071;SDS011;7635;56.696;13.002;2023-07-22T09:33:41;0.82;;;0.82;;
15071;SDS011;7635;56.696;13.002;2023-07-22T09:36:09;1.00;;;1.00;;
15071;SDS011;7635;56.696;13.002;2023-07-22T09:38:36;0.80;;;0.80;;
15071;SDS011;7635;56.696;13.002;2023-07-22T09:41:03;0.70;;;0.70;;
15071;SDS011;7635;56.696;13.002;2023-07-22T09:43:31;0.95;;;0.80;;
15071;SDS011;7635;56.696;13.002;2023-07-22T09:46:05;0.95;;;0.90;;
15071;SDS011;7635;56.696;13.002;2023-07-22T09:48:38;1.20;;;1.10;;
15071;SDS011;7635;56.696;13.002;2023-07-22T09:51:06;0.82;;;0.80;;
15071;SDS011;7635;56.696;13.002;2023-07-22T09:53:38;0.70;;;0.70;;
15071;SDS011;7635;56.696;13.002;2023-07-22T09:56:10;0.80;;;0.80;;
15071;SDS011;7635;56.696;13.002;2023-07-22T09:58:38;0.73;;;0.73;;
15071;SDS011;7635;56.696;13.002;2023-07-22T10:01:06;0.88;;;0.88;;
15071;SDS011;7635;56.696;13.002;2023-07-22T10:03:33;0.73;;;0.73;;
15071;SDS011;7635;56.696;13.002;2023-07-22T10:06:03;1.35;;;0.75;;
15071;SDS011;7635;56.696;13.002;2023-07-22T10:08:32;0.68;;;0.68;;
15071;SDS011;7635;56.696;13.002;2023-07-22T10:11:00;0.60;;;0.60;;
15071;SDS011;7635;56.696;13.002;2023-07-22T10:13:31;0.70;;;0.40;;
15071;SDS011;7635;56.696;13.002;2023-07-22T10:15:59;0.70;;;0.70;;
15071;SDS011;7635;56.696;13.002;2023-07-22T10:18:27;1.80;;;0.80;;
15071;SDS011;7635;56.696;13.002;2023-07-22T10:20:56;2.60;;;1.00;;
15071;SDS011;7635;56.696;13.002;2023-07-22T10:23:23;0.93;;;0.93;;
15071;SDS011;7635;56.696;13.002;2023-07-22T10:25:52;0.80;;;0.80;;
15071;SDS011;7635;56.696;13.002;2023-07-22T10:28:20;0.70;;;0.70;;
15071;SDS011;7635;56.696;13.002;2023-07-22T10:30:48;0.77;;;0.75;;
15071;SDS011;7635;56.696;13.002;2023-07-22T10:33:17;2.03;;;0.90;;
15071;SDS011;7635;56.696;13.002;2023-07-22T10:35:47;0.90;;;0.90;;
15071;SDS011;7635;56.696;13.002;2023-07-22T10:38:29;0.90;;;0.90;;
15071;SDS011;7635;56.696;13.002;2023-07-22T10:40:56;1.30;;;1.20;;
15071;SDS011;7635;56.696;13.002;2023-07-22T10:43:23;0.70;;;0.70;;
15071;SDS011;7635;56.696;13.002;2023-07-22T10:45:52;1.00;;;1.00;;
15071;SDS011;7635;56.696;13.002;2023-07-22T10:48:21;0.98;;;0.98;;
15071;SDS011;7635;56.696;13.002;2023-07-22T10:50:49;1.17;;;0.95;;
15071;SDS011;7635;56.696;13.002;2023-07-22T10:53:28;1.25;;;0.95;;
15071;SDS011;7635;56.696;13.002;2023-07-22T10:56:02;1.35;;;0.85;;
15071;SDS011;7635;56.696;13.002;2023-07-22T10:58:33;1.70;;;0.90;;
15071;SDS011;7635;56.696;13.002;2023-07-22T11:01:21;1.17;;;1.00;;
15071;SDS011;7635;56.696;13.002;2023-07-22T11:04:05;1.15;;;1.05;;
15071;SDS011;7635;56.696;13.002;2023-07-22T11:06:51;1.75;;;1.15;;
15071;SDS011;7635;56.696;13.002;2023-07-22T11:09:35;0.77;;;0.77;;
15071;SDS011;7635;56.696;13.002;2023-07-22T11:12:03;3.00;;;0.70;;
15071;SDS011;7635;56.696;13.002;2023-07-22T11:14:32;0.70;;;0.70;;
15071;SDS011;7635;56.696;13.002;2023-07-22T11:17:00;1.25;;;0.82;;
15071;SDS011;7635;56.696;13.002;2023-07-22T11:19:31;2.90;;;0.88;;
15071;SDS011;7635;56.696;13.002;2023-07-22T11:21:58;0.60;;;0.60;;
15071;SDS011;7635;56.696;13.002;2023-07-22T11:24:26;0.70;;;0.70;;
15071;SDS011;7635;56.696;13.002;2023-07-22T11:26:53;0.70;;;0.70;;
15071;SDS011;7635;56.696;13.002;2023-07-22T11:29:20;0.70;;;0.70;;
15071;SDS011;7635;56.696;13.002;2023-07-22T11:31:48;1.58;;;1.08;;
15071;SDS011;7635;56.696;13.002;2023-07-22T11:34:17;1.88;;;0.85;;
15071;SDS011;7635;56.696;13.002;2023-07-22T11:36:46;0.70;;;0.70;;
15071;SDS011;7635;56.696;13.002;2023-07-22T11:39:14;0.57;;;0.57;;
15071;SDS011;7635;56.696;13.002;2023-07-22T11:41:42;1.65;;;0.80;;
15071;SDS011;7635;56.696;13.002;2023-07-22T11:44:10;1.75;;;0.95;;
15071;SDS011;7635;56.696;13.002;2023-07-22T11:46:46;0.75;;;0.75;;
15071;SDS011;7635;56.696;13.002;2023-07-22T11:49:15;1.23;;;0.98;;
15071;SDS011;7635;56.696;13.002;2023-07-22T11:51:49;0.63;;;0.50;;
15071;SDS011;7635;56.696;13.002;2023-07-22T11:54:16;2.38;;;1.10;;
15071;SDS011;7635;56.696;13.002;2023-07-22T11:56:44;0.40;;;0.40;;
15071;SDS011;7635;56.696;13.002;2023-07-22T11:59:10;0.65;;;0.65;;
15071;SDS011;7635;56.696;13.002;2023-07-22T12:01:37;0.60;;;0.60;;
15071;SDS011;7635;56.696;13.002;2023-07-22T12:04:10;3.67;;;0.88;;
15071;SDS011;7635;56.696;13.002;2023-07-22T12:06:38;1.40;;;0.80;;
15071;SDS011;7635;56.696;13.002;2023-07-22T12:09:06;1.13;;;0.80;;
15071;SDS011;7635;56.696;13.002;2023-07-22T12:11:33;0.68;;;0.68;;
15071;SDS011;7635;56.696;13.002;2023-07-22T12:14:06;0.52;;;0.50;;
15071;SDS011;7635;56.696;13.002;2023-07-22T12:16:34;1.17;;;0.70;;
15071;SDS011;7635;56.696;13.002;2023-07-22T12:19:02;0.73;;;0.70;;
15071;SDS011;7635;56.696;13.002;2023-07-22T12:21:29;2.33;;;0.75;;
15071;SDS011;7635;56.696;13.002;2023-07-22T12:23:56;1.00;;;0.82;;
15071;SDS011;7635;56.696;13.002;2023-07-22T12:26:24;1.00;;;0.70;;
15071;SDS011;7635;56.696;13.002;2023-07-22T12:28:51;0.50;;;0.50;;
15071;SDS011;7635;56.696;13.002;2023-07-22T12:31:18;1.75;;;1.05;;
15071;SDS011;7635;56.696;13.002;2023-07-22T12:33:44;0.68;;;0.68;;
15071;SDS011;7635;56.696;13.002;2023-07-22T12:36:11;1.98;;;0.95;;
15071;SDS011;7635;56.696;13.002;2023-07-22T12:38:38;0.80;;;0.80;;
15071;SDS011;7635;56.696;13.002;2023-07-22T12:41:05;1.52;;;1.05;;
15071;SDS011;7635;56.696;13.002;2023-07-22T12:43:33;0.85;;;0.85;;
15071;SDS011;7635;56.696;13.002;2023-07-22T12:45:59;0.70;;;0.70;;
15071;SDS011;7635;56.696;13.002;2023-07-22T12:48:26;0.50;;;0.50;;
15071;SDS011;7635;56.696;13.002;2023-07-22T12:50:53;1.00;;;1.00;;
15071;SDS011;7635;56.696;13.002;2023-07-22T12:53:20;0.80;;;0.80;;
15071;SDS011;7635;56.696;13.002;2023-07-22T12:55:46;0.82;;;0.70;;
15071;SDS011;7635;56.696;13.002;2023-07-22T12:58:13;0.70;;;0.70;;
15071;SDS011;7635;56.696;13.002;2023-07-22T13:00:42;0.65;;;0.65;;
15071;SDS011;7635;56.696;13.002;2023-07-22T13:03:08;0.60;;;0.57;;
15071;SDS011;7635;56.696;13.002;2023-07-22T13:05:35;1.27;;;0.90;;
15071;SDS011;7635;56.696;13.002;2023-07-22T13:08:02;0.50;;;0.50;;
15071;SDS011;7635;56.696;13.002;2023-07-22T13:10:28;1.00;;;1.00;;
15071;SDS011;7635;56.696;13.002;2023-07-22T13:12:56;0.88;;;0.80;;
15071;SDS011;7635;56.696;13.002;2023-07-22T13:15:23;1.45;;;0.85;;
15071;SDS011;7635;56.696;13.002;2023-07-22T13:17:51;0.73;;;0.73;;
15071;SDS011;7635;56.696;13.002;2023-07-22T13:20:18;0.40;;;0.40;;
15071;SDS011;7635;56.696;13.002;2023-07-22T13:22:44;0.70;;;0.70;;
15071;SDS011;7635;56.696;13.002;2023-07-22T13:25:11;0.57;;;0.57;;
15071;SDS011;7635;56.696;13.002;2023-07-22T13:27:38;1.02;;;1.02;;
15071;SDS011;7635;56.696;13.002;2023-07-22T13:30:06;1.30;;;0.70;;
15071;SDS011;7635;56.696;13.002;2023-07-22T13:32:33;1.73;;;0.90;;
15071;SDS011;7635;56.696;13.002;2023-07-22T13:35:03;1.02;;;0.95;;
15071;SDS011;7635;56.696;13.002;2023-07-22T13:37:30;1.00;;;0.90;;
15071;SDS011;7635;56.696;13.002;2023-07-22T13:39:56;0.98;;;0.90;;
15071;SDS011;7635;56.696;13.002;2023-07-22T13:42:23;0.70;;;0.70;;
15071;SDS011;7635;56.696;13.002;2023-07-22T13:44:50;0.90;;;0.90;;
15071;SDS011;7635;56.696;13.002;2023-07-22T13:47:17;0.80;;;0.80;;
15071;SDS011;7635;56.696;13.002;2023-07-22T13:49:43;1.00;;;1.00;;
15071;SDS011;7635;56.696;13.002;2023-07-22T13:52:11;0.70;;;0.70;;
15071;SDS011;7635;56.696;13.002;2023-07-22T13:54:38;3.17;;;1.00;;
15071;SDS011;7635;56.696;13.002;2023-07-22T13:57:05;1.30;;;0.98;;
15071;SDS011;7635;56.696;13.002;2023-07-22T13:59:32;0.90;;;0.90;;
15071;SDS011;7635;56.696;13.002;2023-07-22T14:01:59;0.80;;;0.80;;
15071;SDS011;7635;56.696;13.002;2023-07-22T14:04:26;0.82;;;0.75;;
15071;SDS011;7635;56.696;13.002;2023-07-22T14:06:52;0.80;;;0.80;;
15071;SDS011;7635;56.696;13.002;2023-07-22T14:09:20;0.88;;;0.88;;
15071;SDS011;7635;56.696;13.002;2023-07-22T14:11:47;0.82;;;0.82;;
15071;SDS011;7635;56.696;13.002;2023-07-22T14:14:14;0.63;;;0.63;;
15071;SDS011;7635;56.696;13.002;2023-07-22T14:16:41;0.73;;;0.70;;
15071;SDS011;7635;56.696;13.002;2023-07-22T14:19:07;0.80;;;0.80;;
15071;SDS011;7635;56.696;13.002;2023-07-22T14:21:34;1.75;;;0.68;;
15071;SDS011;7635;56.696;13.002;2023-07-22T14:24:01;0.77;;;0.77;;
15071;SDS011;7635;56.696;13.002;2023-07-22T14:26:29;1.08;;;0.80;;
15071;SDS011;7635;56.696;13.002;2023-07-22T14:28:55;1.05;;;1.00;;
15071;SDS011;7635;56.696;13.002;2023-07-22T14:31:22;3.80;;;1.00;;
15071;SDS011;7635;56.696;13.002;2023-07-22T14:33:49;2.10;;;1.10;;
15071;SDS011;7635;56.696;13.002;2023-07-22T14:36:16;1.10;;;0.95;;
15071;SDS011;7635;56.696;13.002;2023-07-22T14:38:43;1.90;;;0.93;;
15071;SDS011;7635;56.696;13.002;2023-07-22T14:41:10;0.88;;;0.88;;
15071;SDS011;7635;56.696;13.002;2023-07-22T14:43:38;2.42;;;0.95;;
15071;SDS011;7635;56.696;13.002;2023-07-22T14:46:05;1.80;;;1.30;;
15071;SDS011;7635;56.696;13.002;2023-07-22T14:55:22;1.35;;;0.95;;
15071;SDS011;7635;56.696;13.002;2023-07-22T14:58:19;2.47;;;0.70;;